map of MAF home
MAF - Airport
Location
City:  Midland, Texas, United States
Near (Alt.):Odessa
Name:Midland International Airport
ICAO:KMAF
IATA:MAF
FAA LID:MAF

Details
Type:Airport (Part 139 Class I)
Use:Public/Civil, International (customs landing rights)
Latitude:3156'33"N (31.942528)
Longitude:10212'07"W (-102.201916)
Datum:WGS 1984
Elevation:2872 ft (875 m)
Variation:6.23E (WMM2015 magnetic declination)
-0.10 annual change
Runways:4
Longest:9501 × 150 ft (2896 × 45.5 m), paved

Time
Time Zone:UTC-6 (DST-5)
Local Time:

Weather
METAR:KMAF 250053Z 25007KT 10SM BLDU CLR 14/M18 A2996 RMK AO2 SLP129 T01441178
TAF:KMAF 242320Z 2500/2524 27008KT P6SM SKC= TAF KFST 242320Z 2500/2524 30011KT P6SM SKC
FM250600 23010KT P6SM SKC

Related Locations
Nearby:
Farthest:RRG: 11211 mi / 18043 km
Plaine Corail [Sir Gatan Duval Airport (Plaine Corail Airport)], Rodrigues Island, MU

Find:

   beyond  
but within

Other Information
Maps:
Delays:
NOTAMs:
Links:
Sources:

  
flag of United States
flag of Texas
  

Airport Diagram

Airport diagram for MAF

Airport diagram PDF

Sectional Chart

Flight Planning
at skyvector.com

Satellite Image

Google Maps Satellite view

 

Copyright © 2004-2018 Karl L. Swartz. All rights reserved.
The Great Circle Mapper name and logo are trademarks of the Great Circle Mapper.
All other trademarks mentioned herein belong to their respective owners.
Please see credits for attibutions and further copyright information.

  Follow gcmap on Facebook Follow gcmap on Twitter Follow gcmap on Google+ GCmap on LinkedIn

hCard Microformat

Geo Microformat